createdAt,value
2019-03-24T00:01:58.585Z,26.55
2019-03-24T00:04:29.670Z,29.23
2019-03-24T00:07:00.895Z,27.15
2019-03-24T00:09:31.913Z,31.20
2019-03-24T00:12:03.027Z,20.37
2019-03-24T00:14:34.106Z,26.10
2019-03-24T00:17:04.947Z,29.98
2019-03-24T00:19:35.703Z,30.57
2019-03-24T00:22:07.217Z,26.02
2019-03-24T00:24:38.611Z,26.82
2019-03-24T00:27:09.705Z,23.40
2019-03-24T00:29:40.740Z,22.15
2019-03-24T00:32:11.805Z,25.80
2019-03-24T00:34:42.906Z,21.35
2019-03-24T00:37:13.982Z,31.25
2019-03-24T00:39:45.019Z,22.65
2019-03-24T00:42:16.290Z,29.32
2019-03-24T00:44:47.282Z,21.95
2019-03-24T00:47:18.183Z,24.80
2019-03-24T00:49:49.061Z,20.65
2019-03-24T00:52:19.963Z,29.92
2019-03-24T00:54:51.285Z,26.77
2019-03-24T00:57:22.306Z,37.42
2019-03-24T00:59:53.328Z,21.05
2019-03-24T01:02:24.229Z,27.67
2019-03-24T01:04:55.442Z,23.55
2019-03-24T01:07:26.462Z,23.42
2019-03-24T01:09:57.530Z,21.15
2019-03-24T01:12:28.443Z,25.32
2019-03-24T01:15:01.571Z,17.77
2019-03-24T01:17:33.309Z,23.50
2019-03-24T01:20:04.621Z,26.50
2019-03-24T01:22:35.451Z,15.50
2019-03-24T01:25:06.570Z,19.90
2019-03-24T01:27:37.585Z,18.50
2019-03-24T01:30:09.530Z,21.17
2019-03-24T01:32:40.410Z,25.80
2019-03-24T01:35:11.488Z,23.80
2019-03-24T01:37:42.425Z,29.10
2019-03-24T01:40:13.595Z,21.87
2019-03-24T01:42:44.496Z,30.08
2019-03-24T01:45:15.601Z,24.32
2019-03-24T01:47:46.646Z,37.45
2019-03-24T01:50:17.504Z,31.93
2019-03-24T01:52:48.587Z,30.27
2019-03-24T01:55:19.461Z,30.12
2019-03-24T01:57:50.276Z,20.55
2019-03-24T02:00:21.352Z,34.05
2019-03-24T02:02:52.255Z,32.28
2019-03-24T02:05:23.535Z,39.10
2019-03-24T02:07:54.441Z,30.52
2019-03-24T02:10:27.085Z,28.47
2019-03-24T02:13:01.050Z,30.62
2019-03-24T02:15:32.005Z,27.95
2019-03-24T02:18:03.025Z,23.12
2019-03-24T02:20:34.078Z,27.70
2019-03-24T02:23:05.075Z,33.67
2019-03-24T02:25:36.228Z,33.20
2019-03-24T02:28:07.246Z,35.52
2019-03-24T02:30:38.096Z,35.25
2019-03-24T02:33:09.035Z,27.15
2019-03-24T02:35:40.190Z,20.23
2019-03-24T02:38:12.109Z,28.32
2019-03-24T02:40:46.006Z,24.00
2019-03-24T02:43:18.123Z,20.75
2019-03-24T02:45:49.088Z,16.27
2019-03-24T02:48:20.040Z,20.50
2019-03-24T02:50:51.092Z,28.55
2019-03-24T02:53:24.221Z,22.82
2019-03-24T02:55:55.289Z,23.50
2019-03-24T02:58:26.079Z,23.07
2019-03-24T03:00:57.151Z,24.82
2019-03-24T03:03:28.171Z,28.05
2019-03-24T03:05:59.456Z,22.22
2019-03-24T03:08:30.401Z,27.00
2019-03-24T03:11:01.845Z,27.90
2019-03-24T03:13:32.891Z,15.38
2019-03-24T03:16:03.743Z,20.15
2019-03-24T03:18:34.609Z,22.65
2019-03-24T03:21:05.593Z,36.58
2019-03-24T03:23:36.647Z,36.45
2019-03-24T03:26:07.651Z,24.52
2019-03-24T03:28:38.741Z,31.57
2019-03-24T03:31:09.688Z,25.55
2019-03-24T03:33:40.795Z,22.95
2019-03-24T03:36:11.612Z,27.13
2019-03-24T03:38:42.598Z,32.58
2019-03-24T03:41:13.536Z,27.98
2019-03-24T03:43:44.472Z,23.52
2019-03-24T03:46:16.072Z,21.57
2019-03-24T03:48:47.024Z,30.43
2019-03-24T03:51:17.891Z,43.80
2019-03-24T03:53:48.753Z,21.55
2019-03-24T03:56:19.687Z,44.75
2019-03-24T03:58:50.578Z,27.35
2019-03-24T04:01:21.576Z,27.85
2019-03-24T04:03:52.512Z,31.77
2019-03-24T04:06:23.337Z,32.90
2019-03-24T04:08:54.118Z,30.75
2019-03-24T04:11:24.995Z,33.23
2019-03-24T04:13:55.865Z,31.75
2019-03-24T04:16:26.953Z,34.13
2019-03-24T04:19:00.301Z,34.83
2019-03-24T04:21:31.326Z,50.88
2019-03-24T04:27:01.607Z,51.33
2019-03-24T04:29:32.888Z,52.45
2019-03-24T04:32:03.907Z,58.13
2019-03-24T04:34:36.645Z,72.45
2019-03-24T04:37:07.725Z,52.15
2019-03-24T04:39:38.459Z,85.57
2019-03-24T04:42:10.874Z,54.30
2019-03-24T04:44:42.637Z,108.57
2019-03-24T04:47:16.856Z,73.65
2019-03-24T04:49:50.047Z,81.75
2019-03-24T04:52:29.843Z,46.60
2019-03-24T04:59:22.931Z,45.73
2019-03-24T05:02:10.023Z,58.35
2019-03-24T05:05:08.216Z,126.55
2019-03-24T05:07:44.405Z,65.28
2019-03-24T05:10:27.029Z,53.05
2019-03-24T05:12:58.492Z,64.62
2019-03-24T05:15:31.079Z,46.18
2019-03-24T05:21:10.425Z,38.30
2019-03-24T05:23:41.547Z,74.07
2019-03-24T05:26:12.463Z,36.83
2019-03-24T05:28:43.637Z,32.00
2019-03-24T05:31:14.607Z,33.83
2019-03-24T05:33:45.523Z,81.85
2019-03-24T05:36:16.733Z,109.40
2019-03-24T05:38:47.701Z,89.85
2019-03-24T05:41:19.501Z,67.50
2019-03-24T05:43:50.706Z,155.55
2019-03-24T05:46:24.921Z,84.22
2019-03-24T05:48:58.623Z,59.83
2019-03-24T05:51:29.435Z,55.80
2019-03-24T05:54:00.325Z,99.77
2019-03-24T05:56:31.236Z,49.93
2019-03-24T05:59:02.460Z,51.58
2019-03-24T06:01:33.528Z,42.85
2019-03-24T06:04:04.474Z,48.75
2019-03-24T06:06:37.381Z,47.93
2019-03-24T06:09:15.333Z,43.48
2019-03-24T06:11:50.676Z,37.00
2019-03-24T06:14:24.732Z,34.53
2019-03-24T06:16:57.430Z,23.85
2019-03-24T06:19:28.610Z,36.93
2019-03-24T06:22:33.869Z,23.02
2019-03-24T06:25:02.101Z,39.75
2019-03-24T06:27:48.443Z,25.48
2019-03-24T06:30:22.210Z,20.90
2019-03-24T06:32:53.227Z,30.35
2019-03-24T06:35:24.060Z,27.55
2019-03-24T06:37:55.063Z,19.05
2019-03-24T06:40:25.996Z,18.73
2019-03-24T06:42:59.716Z,27.52
2019-03-24T06:45:37.621Z,30.20
2019-03-24T06:48:08.599Z,40.23
2019-03-24T06:50:39.596Z,53.05
2019-03-24T06:53:13.679Z,77.62
2019-03-24T06:55:48.400Z,68.92
2019-03-24T06:58:21.175Z,34.03
2019-03-24T07:00:52.148Z,29.70
2019-03-24T07:03:23.278Z,23.05
2019-03-24T07:05:56.733Z,26.57
2019-03-24T07:08:28.233Z,35.30
2019-03-24T07:10:59.273Z,25.77
2019-03-24T07:13:36.189Z,37.35
2019-03-24T07:16:09.741Z,35.33
2019-03-24T07:18:40.872Z,30.08
2019-03-24T07:21:12.146Z,39.48
2019-03-24T07:23:43.182Z,36.58
2019-03-24T07:26:14.922Z,29.70
2019-03-24T07:28:49.245Z,31.27
2019-03-24T07:31:23.173Z,36.13
2019-03-24T07:33:54.492Z,37.03
2019-03-24T07:36:25.622Z,43.70
2019-03-24T07:38:56.676Z,33.08
2019-03-24T07:41:28.130Z,36.40
2019-03-24T07:43:59.358Z,28.52
2019-03-24T07:46:30.599Z,39.15
2019-03-24T07:49:01.694Z,45.05
2019-03-24T07:51:32.887Z,32.15
2019-03-24T07:54:07.035Z,35.98
2019-03-24T07:56:40.062Z,29.32
2019-03-24T07:59:14.059Z,31.40
2019-03-24T08:01:45.041Z,45.35
2019-03-24T08:04:20.479Z,47.25
2019-03-24T08:06:51.503Z,44.73
2019-03-24T08:09:26.430Z,46.08
2019-03-24T08:12:00.141Z,36.75
2019-03-24T08:14:31.578Z,34.40
2019-03-24T08:17:02.601Z,41.13
2019-03-24T08:19:33.611Z,33.42
2019-03-24T08:22:09.774Z,30.15
2019-03-24T08:24:50.417Z,31.97
2019-03-24T08:27:24.114Z,30.52
2019-03-24T08:29:56.696Z,35.68
2019-03-24T08:32:27.579Z,35.38
2019-03-24T08:34:58.583Z,27.17
2019-03-24T08:37:32.109Z,28.15
2019-03-24T08:40:03.729Z,34.63
2019-03-24T08:42:34.824Z,29.05
2019-03-24T08:45:08.683Z,29.25
2019-03-24T08:47:42.567Z,28.07
2019-03-24T08:50:13.611Z,31.42
2019-03-24T08:52:44.734Z,32.13
2019-03-24T08:55:15.667Z,26.60
2019-03-24T08:57:49.823Z,27.10
2019-03-24T09:00:30.997Z,28.73
2019-03-24T09:03:02.090Z,28.42
2019-03-24T09:05:35.527Z,34.15
2019-03-24T09:08:07.013Z,24.72
2019-03-24T09:10:37.883Z,25.23
2019-03-24T09:13:09.059Z,26.00
2019-03-24T09:15:40.018Z,27.02
2019-03-24T09:18:14.294Z,35.80
2019-03-24T09:20:45.175Z,25.52
2019-03-24T09:23:16.830Z,23.50
2019-03-24T09:25:49.042Z,25.05
2019-03-24T09:28:21.798Z,34.33
2019-03-24T09:30:55.523Z,33.92
2019-03-24T09:33:26.489Z,33.23
2019-03-24T09:35:57.535Z,25.27
2019-03-24T09:38:29.796Z,27.30
2019-03-24T09:41:03.553Z,33.05
2019-03-24T09:43:34.538Z,30.30
2019-03-24T09:46:05.759Z,26.85
2019-03-24T09:48:40.657Z,24.37
2019-03-24T09:51:15.419Z,30.65
2019-03-24T09:53:47.829Z,25.68
2019-03-24T09:56:20.609Z,32.98
2019-03-24T09:58:51.928Z,30.52
2019-03-24T10:01:27.040Z,28.20
2019-03-24T10:04:02.398Z,26.93
2019-03-24T10:06:36.146Z,31.82
2019-03-24T10:09:08.166Z,26.95
2019-03-24T10:11:42.136Z,24.35
2019-03-24T10:14:13.189Z,30.10
2019-03-24T10:16:44.495Z,29.00
2019-03-24T10:19:18.709Z,24.52
2019-03-24T10:21:50.222Z,22.32
2019-03-24T10:24:21.434Z,18.32
2019-03-24T10:26:55.320Z,23.20
2019-03-24T10:29:26.314Z,23.07
2019-03-24T10:31:57.374Z,24.37
2019-03-24T10:34:35.160Z,16.65
2019-03-24T10:37:07.306Z,23.77
2019-03-24T10:39:38.588Z,29.25
2019-03-24T10:42:09.535Z,22.95
2019-03-24T10:44:44.422Z,19.45
2019-03-24T10:47:15.530Z,19.40
2019-03-24T10:49:46.539Z,20.37
2019-03-24T10:52:21.169Z,15.50
2019-03-24T10:54:54.219Z,19.95
2019-03-24T10:57:25.097Z,18.27
2019-03-24T10:59:56.174Z,18.20
2019-03-24T11:02:33.118Z,16.27
2019-03-24T11:05:04.055Z,19.05
2019-03-24T11:07:37.008Z,17.10
2019-03-24T11:10:13.159Z,24.07
2019-03-24T11:12:44.004Z,21.20
2019-03-24T11:15:15.594Z,13.28
2019-03-24T11:17:47.760Z,14.80
2019-03-24T11:20:18.880Z,15.70
2019-03-24T11:22:49.742Z,21.20
2019-03-24T11:25:22.396Z,18.95
2019-03-24T11:27:53.940Z,14.93
2019-03-24T11:30:25.028Z,13.53
2019-03-24T11:32:57.172Z,15.95
2019-03-24T11:35:28.254Z,16.00
2019-03-24T11:37:59.385Z,22.87
2019-03-24T11:40:30.465Z,18.98
2019-03-24T11:43:01.892Z,37.35
2019-03-24T11:45:33.480Z,15.95
2019-03-24T11:48:06.986Z,21.90
2019-03-24T11:50:37.915Z,10.43
2019-03-24T11:53:10.908Z,15.60
2019-03-24T11:55:42.046Z,16.90
2019-03-24T11:58:15.300Z,12.93
2019-03-24T12:00:46.397Z,6.67
2019-03-24T12:03:18.532Z,11.08
2019-03-24T12:05:49.499Z,7.60
2019-03-24T12:08:20.557Z,11.38
2019-03-24T12:10:51.577Z,15.13
2019-03-24T12:13:22.686Z,10.43
2019-03-24T12:15:53.607Z,10.70
2019-03-24T12:18:30.282Z,7.80
2019-03-24T12:21:01.877Z,12.15
2019-03-24T12:23:32.991Z,12.10
2019-03-24T12:26:04.167Z,11.30
2019-03-24T12:28:37.455Z,8.40
2019-03-24T12:31:09.981Z,10.58
2019-03-24T12:33:41.378Z,16.32
2019-03-24T12:36:12.491Z,10.53
2019-03-24T12:38:49.473Z,13.03
2019-03-24T12:41:22.810Z,16.90
2019-03-24T12:43:53.599Z,15.60
2019-03-24T12:46:24.279Z,18.60
2019-03-24T12:48:55.091Z,14.78
2019-03-24T12:51:25.909Z,17.90
2019-03-24T12:53:57.035Z,14.70
2019-03-24T12:56:27.725Z,12.40
2019-03-24T12:58:59.433Z,12.13
2019-03-24T13:01:33.015Z,11.33
2019-03-24T13:04:03.759Z,13.18
2019-03-24T13:06:36.165Z,10.60
2019-03-24T13:09:08.306Z,7.25
2019-03-24T13:11:39.483Z,6.42
2019-03-24T13:14:11.363Z,14.23
2019-03-24T13:16:45.198Z,9.93
2019-03-24T13:19:15.920Z,13.28
2019-03-24T13:21:47.403Z,7.85
2019-03-24T13:24:18.091Z,9.95
2019-03-24T13:26:50.543Z,11.43
2019-03-24T13:29:22.582Z,8.30
2019-03-24T13:31:56.019Z,6.30
2019-03-24T13:34:29.617Z,11.57
2019-03-24T13:37:00.674Z,6.20
2019-03-24T13:39:33.062Z,9.38
2019-03-24T13:42:04.014Z,7.42
2019-03-24T13:44:34.811Z,3.62
2019-03-24T13:47:05.664Z,3.92
2019-03-24T13:49:36.471Z,7.75
2019-03-24T13:52:07.165Z,7.78
2019-03-24T13:54:37.895Z,3.52
2019-03-24T13:57:11.792Z,8.00
2019-03-24T13:59:42.551Z,6.50
2019-03-24T14:02:13.230Z,6.12
2019-03-24T14:04:43.967Z,6.42
2019-03-24T14:07:16.983Z,5.22
2019-03-24T14:09:50.480Z,4.83
2019-03-24T14:12:21.242Z,8.73
2019-03-24T14:14:52.218Z,6.12
2019-03-24T14:17:25.900Z,7.95
2019-03-24T14:19:57.920Z,9.23
2019-03-24T14:22:28.790Z,9.28
2019-03-24T14:24:59.486Z,8.53
2019-03-24T14:27:32.704Z,10.78
2019-03-24T14:30:03.572Z,8.50
2019-03-24T14:32:38.313Z,6.25
2019-03-24T14:35:09.376Z,9.43
2019-03-24T14:37:40.837Z,5.35
2019-03-24T14:40:11.990Z,4.00
2019-03-24T14:42:42.782Z,5.75
2019-03-24T14:45:13.958Z,5.47
2019-03-24T14:47:44.820Z,10.60
2019-03-24T14:50:15.882Z,7.72
2019-03-24T14:52:50.776Z,6.28
2019-03-24T14:55:22.326Z,7.05
2019-03-24T14:57:54.798Z,10.45
2019-03-24T15:00:36.032Z,4.62
2019-03-24T15:03:07.301Z,6.20
2019-03-24T15:05:38.394Z,7.45
2019-03-24T15:08:11.363Z,6.80
2019-03-24T15:10:47.483Z,6.47
2019-03-24T15:13:18.645Z,6.55
2019-03-24T15:15:49.436Z,6.00
2019-03-24T15:18:20.422Z,3.52
2019-03-24T15:21:04.910Z,4.58
2019-03-24T15:23:32.761Z,3.47
2019-03-24T15:26:05.022Z,1.98
2019-03-24T15:28:36.434Z,2.10
2019-03-24T15:31:07.698Z,5.37
2019-03-24T15:33:38.932Z,2.02
2019-03-24T15:36:09.984Z,3.40
2019-03-24T15:38:41.208Z,6.58
2019-03-24T15:41:18.379Z,3.72
2019-03-24T15:43:49.663Z,7.37
2019-03-24T15:46:20.925Z,7.83
2019-03-24T15:48:51.854Z,7.10
2019-03-24T15:51:22.998Z,10.82
2019-03-24T15:53:55.196Z,7.47
2019-03-24T15:56:26.539Z,9.55
2019-03-24T15:59:02.844Z,9.38
2019-03-24T16:01:33.952Z,8.48
2019-03-24T16:04:04.887Z,9.75
2019-03-24T16:06:35.874Z,10.80
2019-03-24T16:09:09.929Z,11.55
2019-03-24T16:11:41.131Z,11.35
2019-03-24T16:14:12.095Z,5.80
2019-03-24T16:16:43.033Z,12.13
2019-03-24T16:19:13.872Z,10.18
2019-03-24T16:21:44.773Z,12.30
2019-03-24T16:24:15.935Z,19.67
2019-03-24T16:26:47.952Z,9.65
2019-03-24T16:29:18.788Z,10.40
2019-03-24T16:31:49.777Z,9.73
2019-03-24T16:34:23.502Z,9.93
2019-03-24T16:36:54.398Z,9.08
2019-03-24T16:39:25.341Z,8.63
2019-03-24T16:42:00.583Z,5.62
2019-03-24T16:44:31.409Z,4.97
2019-03-24T16:47:05.292Z,5.30
2019-03-24T16:49:36.310Z,7.25
2019-03-24T16:52:08.679Z,5.55
2019-03-24T16:54:39.755Z,7.47
2019-03-24T16:57:10.627Z,10.35
2019-03-24T16:59:42.016Z,4.15
2019-03-24T17:02:18.577Z,3.40
2019-03-24T17:04:52.069Z,4.97
2019-03-24T17:07:23.047Z,4.03
2019-03-24T17:09:56.080Z,6.33
2019-03-24T17:12:36.991Z,3.72
2019-03-24T17:15:10.563Z,5.45
2019-03-24T17:17:41.769Z,4.20
2019-03-24T17:20:16.584Z,4.45
2019-03-24T17:22:52.063Z,4.35
2019-03-24T17:25:23.383Z,4.47
2019-03-24T17:28:01.255Z,4.33
2019-03-24T17:30:33.698Z,5.78
2019-03-24T17:33:04.878Z,5.62
2019-03-24T17:35:35.960Z,8.15
2019-03-24T17:38:06.991Z,8.68
2019-03-24T17:40:39.084Z,6.03
2019-03-24T17:43:12.233Z,11.35
2019-03-24T17:45:44.270Z,5.25
2019-03-24T17:48:16.103Z,8.53
2019-03-24T17:50:47.150Z,6.37
2019-03-24T17:53:18.035Z,7.75
2019-03-24T17:55:49.073Z,14.20
2019-03-24T17:58:21.297Z,11.38
2019-03-24T18:00:56.657Z,7.37
2019-03-24T18:03:32.909Z,6.55
2019-03-24T18:06:04.052Z,9.13
2019-03-24T18:08:35.337Z,11.12
2019-03-24T18:11:07.750Z,4.50
2019-03-24T18:13:39.721Z,14.45
2019-03-24T18:16:20.281Z,6.95
2019-03-24T18:18:46.434Z,7.37
2019-03-24T18:21:19.207Z,6.05
2019-03-24T18:23:51.535Z,5.90
2019-03-24T18:26:28.360Z,8.85
2019-03-24T18:29:01.992Z,6.45
2019-03-24T18:31:36.100Z,8.18
2019-03-24T18:34:08.494Z,5.65
2019-03-24T18:36:40.855Z,8.35
2019-03-24T18:39:16.225Z,8.80
2019-03-24T18:41:47.625Z,6.40
2019-03-24T18:44:20.438Z,4.40
2019-03-24T18:47:00.375Z,5.95
2019-03-24T18:49:35.434Z,4.83
2019-03-24T18:52:09.961Z,7.78
2019-03-24T18:54:40.921Z,8.55
2019-03-24T18:57:12.237Z,7.58
2019-03-24T18:59:43.185Z,7.92
2019-03-24T19:02:14.461Z,6.62
2019-03-24T19:04:49.042Z,7.08
2019-03-24T19:07:20.316Z,8.28
2019-03-24T19:09:51.204Z,7.30
2019-03-24T19:12:22.089Z,11.78
2019-03-24T19:14:53.024Z,10.68
2019-03-24T19:17:23.917Z,9.33
2019-03-24T19:19:54.952Z,7.83
2019-03-24T19:22:33.479Z,8.05
2019-03-24T19:24:58.745Z,7.15
2019-03-24T19:27:29.502Z,7.37
2019-03-24T19:30:00.390Z,9.23
2019-03-24T19:32:31.165Z,7.12
2019-03-24T19:35:02.170Z,8.00
2019-03-24T19:37:33.448Z,9.30
2019-03-24T19:40:04.497Z,6.92
2019-03-24T19:42:35.371Z,9.63
2019-03-24T19:45:06.352Z,13.70
2019-03-24T19:47:38.831Z,8.73
2019-03-24T19:50:09.866Z,6.80
2019-03-24T19:52:44.867Z,8.15
2019-03-24T19:55:14.306Z,9.75
2019-03-24T19:57:47.361Z,12.13
2019-03-24T20:00:18.421Z,13.65
2019-03-24T20:02:49.260Z,11.30
2019-03-24T20:05:20.264Z,7.90
2019-03-24T20:07:51.178Z,11.60
2019-03-24T20:10:22.004Z,7.92
2019-03-24T20:12:53.197Z,13.65
2019-03-24T20:15:31.328Z,16.48
2019-03-24T20:18:05.300Z,7.40
2019-03-24T20:20:36.277Z,12.75
2019-03-24T20:23:07.363Z,8.93
2019-03-24T20:25:39.994Z,9.33
2019-03-24T20:28:12.952Z,8.53
2019-03-24T20:30:47.099Z,12.18
2019-03-24T20:33:20.903Z,12.55
2019-03-24T20:35:51.752Z,14.35
2019-03-24T20:38:22.528Z,12.28
2019-03-24T20:40:53.374Z,9.73
2019-03-24T20:43:24.164Z,12.98
2019-03-24T20:45:59.411Z,7.85
2019-03-24T20:48:30.228Z,13.50
2019-03-24T20:51:01.119Z,10.85
2019-03-24T20:53:32.303Z,13.22
2019-03-24T20:56:03.614Z,17.70
2019-03-24T20:58:36.349Z,9.40
2019-03-24T21:01:07.460Z,10.68
2019-03-24T21:03:38.274Z,12.28
2019-03-24T21:06:09.325Z,10.90
2019-03-24T21:08:40.182Z,11.57
2019-03-24T21:11:12.289Z,11.50
2019-03-24T21:13:49.426Z,13.90
2019-03-24T21:16:30.095Z,10.60
2019-03-24T21:19:08.721Z,11.78
2019-03-24T21:21:42.561Z,8.28
2019-03-24T21:24:13.413Z,12.95
2019-03-24T21:26:44.242Z,17.62
2019-03-24T21:29:16.466Z,9.60
2019-03-24T21:31:47.502Z,12.45
2019-03-24T21:34:18.857Z,16.45
2019-03-24T21:36:49.791Z,14.68
2019-03-24T21:39:21.257Z,11.48
2019-03-24T21:41:52.420Z,12.68
2019-03-24T21:44:23.207Z,16.05
2019-03-24T21:46:54.187Z,15.70
2019-03-24T21:49:25.146Z,17.85
2019-03-24T21:51:56.220Z,15.18
2019-03-24T21:54:28.142Z,15.43
2019-03-24T21:56:59.147Z,19.57
2019-03-24T21:59:31.955Z,13.98
2019-03-24T22:02:02.970Z,7.53
2019-03-24T22:04:34.413Z,16.82
2019-03-24T22:07:06.783Z,13.58
2019-03-24T22:09:37.656Z,11.68
2019-03-24T22:12:11.088Z,12.95
2019-03-24T22:14:41.889Z,9.53
2019-03-24T22:17:12.726Z,10.32
2019-03-24T22:19:43.492Z,14.93
2019-03-24T22:22:14.571Z,8.23
2019-03-24T22:24:45.552Z,9.55
2019-03-24T22:27:16.376Z,6.00
2019-03-24T22:29:47.248Z,11.68
2019-03-24T22:32:20.524Z,13.62
2019-03-24T22:34:51.247Z,10.80
2019-03-24T22:37:23.099Z,7.17
2019-03-24T22:39:53.821Z,14.30
2019-03-24T22:42:24.683Z,6.55
2019-03-24T22:44:55.559Z,4.53
2019-03-24T22:47:26.414Z,9.55
2019-03-24T22:49:57.469Z,6.33
2019-03-24T22:52:28.395Z,6.15
2019-03-24T22:54:59.233Z,11.40
2019-03-24T22:57:32.571Z,6.05
2019-03-24T23:00:02.467Z,10.03
2019-03-24T23:02:35.033Z,9.65
2019-03-24T23:05:07.387Z,6.53
2019-03-24T23:07:38.179Z,6.65
2019-03-24T23:10:09.083Z,11.90
2019-03-24T23:12:41.247Z,8.23
2019-03-24T23:15:13.269Z,9.65
2019-03-24T23:17:44.187Z,14.35
2019-03-24T23:20:14.965Z,11.15
2019-03-24T23:22:45.776Z,19.80
2019-03-24T23:25:19.345Z,5.10
2019-03-24T23:27:50.182Z,13.85
2019-03-24T23:30:21.235Z,8.33
2019-03-24T23:32:52.243Z,7.15
2019-03-24T23:35:23.190Z,13.83
2019-03-24T23:37:55.208Z,7.47
2019-03-24T23:40:26.045Z,11.53
2019-03-24T23:42:56.867Z,13.43
2019-03-24T23:45:27.660Z,15.00
2019-03-24T23:47:58.549Z,16.97
2019-03-24T23:50:29.352Z,6.05
2019-03-24T23:53:03.333Z,12.35
2019-03-24T23:55:34.251Z,12.90
2019-03-24T23:58:05.034Z,12.90
